Taiyuan Wusu Airport
ZBYN : now visible

Airfield :











YOU CAN JOIN US ON...

 
LOGIN :

Register | Disclaimer

   EN    FR    IT 

 









Legend :    VFR   Marginal VFR   IFR   Intensive IFR   Very Intensive IFR
Visi :
Ceiling :
>= 8 km
>= 3000ft
5 to 8 km
1000 to 3000 ft
1500m to 5 km
500 to 1000 ft
800 to 1500m
200 to 500 ft
< 800m
< 200 ft
Symbols :   Thunderstorms  Fog  Heavy snow  Heavy precipitations  Wind > 20 kt






- Airport Elevation : 2575 ft
- IATA code : TYN


ZBYN - Taiyuan Wusu

CURRENT METAR :
  • 120930Z 27002MPS 240V300 9999 SCT040 19/16 Q1010 NOSIG

EXPIRED METARs :
  • 120900Z VRB01MPS 9999 SCT040 19/16 Q1010 NOSIG
  • 120830Z 17002MPS 130V200 8000 FEW030 SCT040 20/17 Q1010 NOSIG
  • 120800Z VRB01MPS 8000 -SHRA FEW030 SCT040 20/17 Q1010 NOSIG
  • 120730Z 10004MPS 030V120 8000 -SHRA FEW030 FEW040CB 20/16 Q1010 NOSIG
  • 120700Z 07004MPS 020V110 7000 -SHRA SCT040 FEW040CB 21/17 Q1010 NOSIG

TAF TAF ZBYN
Valid from the 12 at 06:00 until the 13 at 06:00 UTC


120313Z 1206/1306 36004MPS 6000 NSC TX27/1306Z TN16/1221Z
ZBPE FIR / Asia



MET'MAP, your aeronautical weather chart ! - Copyright ORBIFLY December 2007 - Disclaimer

ORBIFLY MET'MAP TEAM :

Programming & Development : Alexandra Zaïnal
Concept & original design : Baudouin d'Aumeries
Assistance for programming : Marc-Olivier Méhu
Technical & hardware support : Manuel Goepfert

Contact : metmap@orbifly.com




SOURCES & CREDITS :

   NOAA       Earth
Advisory